Time;durP1;ratioP1;P1;durP2;ratioP2;P2;SDS_P1;SDS_P2;PMS_P1;PMS_P2;Temp;Humidity;BMP_temperature;BMP_pressure;BME280_temperature;BME280_humidity;BME280_pressure;Samples;Min_cycle;Max_cycle;Signal;HPM_P1;HPM_P2
2021/03/24 10:45:01;;;;;;;85.70;58.60;;;14.30;99.90;;;;;;1911429;74;21689;-70
2021/03/24 10:47:41;;;;;;;86.20;58.55;;;14.60;99.90;;;;;;1872219;75;21140;-71
2021/03/24 10:50:45;;;;;;;89.72;60.60;;;14.70;99.90;;;;;;1883646;75;21668;-72
2021/03/24 10:53:15;;;;;;;82.55;57.33;;;14.90;99.90;;;;;;1877964;76;21121;-71
2021/03/24 10:55:44;;;;;;;86.00;56.30;;;14.90;99.90;;;;;;1882235;76;21609;-70
2021/03/24 10:58:36;;;;;;;84.62;58.95;;;14.90;99.90;;;;;;1880833;76;21083;-70
2021/03/24 11:01:19;;;;;;;77.55;57.65;;;15.00;99.90;;;;;;1877019;76;21551;-71
2021/03/24 11:03:52;;;;;;;85.75;58.38;;;15.00;99.90;;;;;;1876575;76;21206;-69
2021/03/24 11:06:23;;;;;;;84.03;58.33;;;14.90;99.90;;;;;;1883549;74;21157;-69
2021/03/24 11:09:12;;;;;;;86.40;58.10;;;14.90;99.90;;;;;;1880367;75;21042;-69
2021/03/24 11:11:45;;;;;;;82.72;57.65;;;15.10;99.90;;;;;;1879992;76;21041;-69
2021/03/24 11:14:27;;;;;;;81.32;55.75;;;15.10;99.90;;;;;;1878105;76;21026;-68
2021/03/24 11:17:00;;;;;;;83.45;56.20;;;15.20;99.90;;;;;;1881472;76;21211;-69
2021/03/24 11:19:33;;;;;;;85.30;56.18;;;15.30;99.90;;;;;;1874210;76;21627;-69
2021/03/24 11:22:10;;;;;;;83.72;57.45;;;15.30;99.90;;;;;;1883202;76;21015;-68
2021/03/24 11:25:02;;;;;;;84.25;54.85;;;15.40;99.90;;;;;;1881092;76;21092;-68
2021/03/24 11:27:41;;;;;;;87.10;56.63;;;15.40;99.90;;;;;;1885341;76;21034;-68
2021/03/24 11:30:28;;;;;;;77.60;52.80;;;15.50;99.90;;;;;;1883105;76;21049;-68
2021/03/24 11:33:07;;;;;;;76.87;53.38;;;15.60;99.90;;;;;;1881490;76;21045;-68
2021/03/24 11:35:47;;;;;;;77.42;51.60;;;15.70;99.50;;;;;;1883978;76;21174;-68
2021/03/24 11:38:28;;;;;;;79.35;51.18;;;15.70;99.70;;;;;;1878573;76;21174;-71
2021/03/24 11:41:05;;;;;;;71.85;48.17;;;15.80;99.20;;;;;;1879671;76;21151;-70
2021/03/24 11:43:36;;;;;;;74.67;48.35;;;16.00;98.00;;;;;;1776491;79;21219;-69
2021/03/24 11:46:37;;;;;;;69.47;46.45;;;15.90;97.70;;;;;;1805589;78;21225;-70
2021/03/24 11:49:41;;;;;;;62.17;44.05;;;15.80;97.60;;;;;;1850831;77;21137;-70
2021/03/24 11:52:27;;;;;;;67.87;46.10;;;16.10;97.60;;;;;;1852414;77;21279;-72
2021/03/24 11:55:21;;;;;;;63.55;44.25;;;16.30;97.20;;;;;;1852544;77;21600;-69
2021/03/24 11:58:07;;;;;;;66.50;44.10;;;16.50;96.30;;;;;;1855768;76;21552;-70
2021/03/24 12:00:57;;;;;;;62.27;43.60;;;16.60;95.80;;;;;;1852272;77;21059;-68
2021/03/24 12:03:42;;;;;;;64.77;43.28;;;16.70;96.00;;;;;;1850636;77;21280;-68
2021/03/24 12:06:18;;;;;;;60.88;42.40;;;17.10;95.60;;;;;;1835921;77;21126;-68
2021/03/24 12:09:03;;;;;;;63.40;42.38;;;17.50;94.30;;;;;;1853515;77;21110;-70
2021/03/24 12:11:33;;;;;;;62.17;40.45;;;17.90;94.70;;;;;;1859099;77;21537;-71
2021/03/24 12:14:22;;;;;;;58.85;40.45;;;18.30;93.30;;;;;;1855784;77;21176;-71
2021/03/24 12:16:55;;;;;;;55.23;39.40;;;18.60;91.90;;;;;;1854295;77;21165;-71
2021/03/24 12:19:32;;;;;;;59.53;42.53;;;18.70;91.80;;;;;;1854186;77;21149;-71
2021/03/24 12:22:05;;;;;;;60.33;41.88;;;18.70;91.40;;;;;;1852656;77;21070;-70
2021/03/24 12:24:38;;;;;;;59.73;41.33;;;18.80;91.40;;;;;;1845706;77;21602;-69
2021/03/24 12:27:14;;;;;;;55.98;38.30;;;19.00;91.00;;;;;;1851275;76;21187;-71
2021/03/24 12:29:48;;;;;;;58.80;39.88;;;19.40;90.10;;;;;;1846871;77;21089;-70
2021/03/24 12:32:27;;;;;;;51.30;38.40;;;19.30;90.10;;;;;;1848896;76;21083;-70
2021/03/24 12:34:56;;;;;;;59.48;40.48;;;19.40;89.20;;;;;;1853521;76;21078;-71
2021/03/24 12:37:27;;;;;;;49.53;36.17;;;19.50;87.70;;;;;;1851686;76;21572;-70
2021/03/24 12:39:57;;;;;;;52.88;37.95;;;19.90;88.60;;;;;;1851801;76;21509;-70
2021/03/24 12:42:30;;;;;;;59.40;41.18;;;20.10;85.70;;;;;;1853180;76;21134;-71
2021/03/24 12:44:59;;;;;;;51.73;38.98;;;20.10;86.50;;;;;;1856942;76;21148;-71
2021/03/24 12:47:39;;;;;;;58.02;39.92;;;20.00;85.30;;;;;;1855911;77;21145;-69
2021/03/24 12:50:14;;;;;;;53.28;39.13;;;20.10;84.80;;;;;;1858181;77;21529;-71
2021/03/24 12:53:05;;;;;;;49.25;38.55;;;20.10;85.70;;;;;;1849599;77;21606;-71
2021/03/24 12:55:34;;;;;;;48.35;38.63;;;20.40;85.20;;;;;;1850382;77;21211;-70
2021/03/24 12:58:14;;;;;;;51.90;38.92;;;21.10;82.70;;;;;;1855156;77;21203;-69
2021/03/24 13:00:59;;;;;;;52.75;37.10;;;21.30;82.20;;;;;;1843967;77;21183;-69
2021/03/24 13:03:54;;;;;;;48.75;35.70;;;21.30;80.60;;;;;;1850404;76;21050;-69
2021/03/24 13:06:31;;;;;;;50.95;36.50;;;21.60;79.00;;;;;;1856647;77;21172;-69
2021/03/24 13:09:28;;;;;;;50.70;37.23;;;21.60;77.40;;;;;;1847697;77;21639;-69
2021/03/24 13:12:08;;;;;;;43.83;34.10;;;21.70;77.20;;;;;;1854627;76;21828;-69
2021/03/24 13:14:53;;;;;;;43.90;32.23;;;21.80;77.50;;;;;;1854574;77;21101;-70
2021/03/24 13:17:36;;;;;;;45.52;32.67;;;22.30;75.10;;;;;;1852539;76;21051;-70
2021/03/24 13:20:24;;;;;;;45.95;33.67;;;22.70;73.50;;;;;;1852915;76;21101;-70
2021/03/24 13:23:00;;;;;;;46.50;34.73;;;23.00;72.50;;;;;;1857182;76;21525;-69
2021/03/24 13:25:33;;;;;;;46.45;32.90;;;22.80;70.40;;;;;;1851744;77;21052;-69
2021/03/24 13:28:10;;;;;;;43.50;29.70;;;22.70;70.90;;;;;;1852883;76;21116;-69
2021/03/24 13:30:52;;;;;;;45.15;31.50;;;22.80;71.20;;;;;;1856605;77;21193;-70
2021/03/24 13:33:35;;;;;;;41.85;31.40;;;23.40;69.30;;;;;;1852656;77;21101;-69
2021/03/24 13:36:08;;;;;;;41.23;30.20;;;23.10;68.90;;;;;;1852138;77;21156;-70
2021/03/24 13:38:50;;;;;;;41.73;28.67;;;23.40;68.10;;;;;;1853077;77;21194;-70
2021/03/24 13:41:19;;;;;;;37.78;28.12;;;23.60;65.10;;;;;;1856753;77;21142;-70
2021/03/24 13:43:56;;;;;;;31.12;24.90;;;23.80;64.70;;;;;;1852511;77;21173;-70
2021/03/24 13:46:42;;;;;;;38.78;27.80;;;24.00;63.70;;;;;;1847088;77;21563;-70
2021/03/24 13:49:26;;;;;;;37.70;27.82;;;24.20;62.00;;;;;;1853269;76;21126;-71
2021/03/24 13:51:56;;;;;;;36.45;26.05;;;24.20;60.70;;;;;;1847614;77;21540;-71
2021/03/24 13:54:48;;;;;;;36.50;25.17;;;24.20;61.40;;;;;;1856236;77;21106;-71
2021/03/24 13:57:22;;;;;;;40.88;29.42;;;24.40;61.10;;;;;;1847215;77;21219;-70
2021/03/24 13:59:52;;;;;;;39.00;28.52;;;24.20;59.80;;;;;;1835553;77;21110;-70
2021/03/24 14:02:23;;;;;;;36.55;27.75;;;24.20;60.40;;;;;;1847655;76;21151;-71
2021/03/24 14:05:13;;;;;;;37.08;28.67;;;24.30;60.80;;;;;;1856463;76;21165;-71
2021/03/24 14:07:43;;;;;;;36.58;28.20;;;24.00;60.10;;;;;;1851864;77;21126;-71
2021/03/24 14:10:32;;;;;;;34.67;27.00;;;24.00;60.60;;;;;;1855123;77;21162;-70
2021/03/24 14:13:28;;;;;;;45.00;30.23;;;24.10;60.50;;;;;;1855476;77;21126;-69
2021/03/24 14:15:59;;;;;;;36.30;27.87;;;23.80;59.50;;;;;;1859582;77;21092;-70
2021/03/24 14:18:38;;;;;;;38.60;28.70;;;23.70;59.90;;;;;;1853422;77;21114;-70
2021/03/24 14:21:26;;;;;;;39.25;30.90;;;23.90;59.90;;;;;;1837500;77;21130;-70
2021/03/24 14:24:13;;;;;;;37.70;29.52;;;23.90;59.60;;;;;;1855110;76;21190;-70
2021/03/24 14:26:47;;;;;;;46.18;33.15;;;23.50;60.40;;;;;;1845336;77;21388;-71
2021/03/24 14:29:42;;;;;;;38.23;29.02;;;23.40;59.70;;;;;;1851544;77;21249;-70
2021/03/24 14:32:25;;;;;;;44.55;33.38;;;23.10;61.00;;;;;;1850281;77;21584;-69
2021/03/24 14:34:59;;;;;;;48.23;33.55;;;23.00;61.20;;;;;;1855211;76;21195;-69
2021/03/24 14:37:38;;;;;;;46.70;32.88;;;22.70;61.60;;;;;;1847115;76;21082;-71
2021/03/24 14:40:11;;;;;;;42.60;30.97;;;22.50;63.90;;;;;;1846868;76;21086;-70
2021/03/24 14:42:42;;;;;;;44.38;32.93;;;22.50;63.10;;;;;;1788337;77;21506;-71
2021/03/24 14:45:43;;;;;;;43.15;32.73;;;22.40;62.30;;;;;;1847233;76;21162;-72
2021/03/24 14:48:28;;;;;;;46.77;32.75;;;22.00;62.60;;;;;;1855076;76;21169;-72
2021/03/24 14:51:05;;;;;;;44.85;31.33;;;22.00;62.90;;;;;;1847288;77;21181;-71
2021/03/24 14:53:38;;;;;;;40.60;31.35;;;22.00;64.00;;;;;;1858760;77;21086;-72
2021/03/24 14:56:12;;;;;;;47.08;31.87;;;21.90;63.20;;;;;;1858388;76;21114;-70
2021/03/24 14:58:46;;;;;;;44.00;31.57;;;21.80;63.70;;;;;;1854923;77;21106;-71
2021/03/24 15:01:16;;;;;;;44.05;30.95;;;21.40;64.00;;;;;;1851049;75;21109;-69
2021/03/24 15:03:44;;;;;;;47.25;33.83;;;21.30;64.80;;;;;;1856247;75;21117;-70
2021/03/24 15:06:14;;;;;;;44.77;33.18;;;20.80;64.30;;;;;;1858734;77;21125;-71
2021/03/24 15:08:52;;;;;;;40.95;31.23;;;20.30;65.30;;;;;;1854953;76;21656;-71
2021/03/24 15:11:25;;;;;;;44.20;32.80;;;19.70;67.00;;;;;;1853302;77;21191;-71
2021/03/24 15:13:56;;;;;;;50.12;34.70;;;19.40;68.10;;;;;;1858014;77;21134;-71
2021/03/24 15:16:48;;;;;;;46.95;34.18;;;19.30;69.00;;;;;;1852573;77;21573;-71
2021/03/24 15:19:41;;;;;;;51.02;33.90;;;19.00;70.30;;;;;;1853879;77;21164;-71
2021/03/24 15:22:18;;;;;;;44.08;31.40;;;19.30;69.20;;;;;;1845556;77;21187;-71
2021/03/24 15:25:03;;;;;;;45.50;33.20;;;19.70;69.20;;;;;;1821305;76;22420;-71
2021/03/24 15:28:07;;;;;;;47.93;32.23;;;20.10;68.30;;;;;;1851028;76;21157;-71
2021/03/24 15:31:01;;;;;;;46.50;31.97;;;20.50;67.00;;;;;;1852306;77;21141;-70
2021/03/24 15:33:46;;;;;;;47.78;33.05;;;20.50;65.90;;;;;;1845128;77;21157;-69
2021/03/24 15:36:25;;;;;;;46.25;32.17;;;20.70;66.60;;;;;;1853301;77;21162;-69
2021/03/24 15:38:55;;;;;;;53.58;34.92;;;20.70;66.00;;;;;;1854879;77;21176;-69
2021/03/24 15:41:46;;;;;;;51.53;34.27;;;20.00;67.40;;;;;;1855835;76;21067;-69
2021/03/24 15:44:25;;;;;;;45.33;33.35;;;19.60;68.70;;;;;;1856188;77;21203;-69
2021/03/24 15:47:10;;;;;;;50.58;35.15;;;19.40;70.00;;;;;;1853941;77;21235;-68
2021/03/24 15:49:40;;;;;;;49.00;34.18;;;19.20;69.80;;;;;;1857062;77;21152;-68
2021/03/24 15:52:20;;;;;;;48.98;34.03;;;18.80;71.00;;;;;;1849365;77;21008;-68
2021/03/24 15:55:08;;;;;;;46.90;33.53;;;18.70;72.20;;;;;;1858104;76;21050;-70
2021/03/24 15:57:41;;;;;;;41.85;31.85;;;18.50;72.30;;;;;;1853924;77;21052;-70
2021/03/24 16:00:14;;;;;;;51.23;32.42;;;18.50;73.60;;;;;;1851765;76;21578;-70
2021/03/24 16:03:05;;;;;;;50.58;34.38;;;18.50;73.10;;;;;;1855639;77;21063;-71
2021/03/24 16:05:38;;;;;;;43.78;30.02;;;18.50;73.20;;;;;;1852910;76;22144;-70
2021/03/24 16:08:18;;;;;;;42.67;30.17;;;18.40;72.30;;;;;;1855048;77;21059;-70
2021/03/24 16:10:51;;;;;;;50.03;33.35;;;18.40;71.90;;;;;;1848678;77;21131;-70
2021/03/24 16:13:38;;;;;;;48.80;31.77;;;18.20;71.90;;;;;;1854005;77;21111;-71
2021/03/24 16:16:23;;;;;;;49.23;31.45;;;18.10;72.60;;;;;;1855743;76;21130;-70
2021/03/24 16:19:16;;;;;;;47.60;31.87;;;18.00;72.70;;;;;;1854017;75;21551;-71
2021/03/24 16:21:53;;;;;;;49.25;33.10;;;17.80;72.90;;;;;;1853059;77;22506;-71
2021/03/24 16:24:40;;;;;;;49.50;32.80;;;17.60;73.70;;;;;;1845366;76;21132;-71
2021/03/24 16:27:11;;;;;;;51.58;33.48;;;17.60;73.60;;;;;;1852487;77;21227;-71
2021/03/24 16:29:59;;;;;;;49.65;32.03;;;17.60;74.00;;;;;;1848629;77;21525;-70
2021/03/24 16:33:03;;;;;;;52.98;33.02;;;17.60;74.40;;;;;;1843555;77;21086;-69
2021/03/24 16:35:53;;;;;;;49.00;32.85;;;17.50;74.80;;;;;;1857000;77;21130;-67
2021/03/24 16:38:55;;;;;;;51.25;34.23;;;17.50;75.40;;;;;;1851726;77;21650;-68
2021/03/24 16:42:00;;;;;;;52.15;32.30;;;17.40;75.20;;;;;;1855444;77;21199;-68
2021/03/24 16:44:43;;;;;;;51.60;33.45;;;17.40;76.20;;;;;;1858376;77;21110;-68
2021/03/24 16:47:41;;;;;;;46.75;31.55;;;17.30;76.40;;;;;;1857843;76;21133;-68
2021/03/24 16:50:38;;;;;;;51.70;33.95;;;17.30;76.40;;;;;;1856534;76;21219;-67
2021/03/24 16:53:24;;;;;;;48.20;33.75;;;17.30;76.60;;;;;;1762026;79;21130;-68
2021/03/24 16:56:09;;;;;;;48.83;33.35;;;17.20;76.80;;;;;;1847681;76;21142;-68
2021/03/24 16:59:00;;;;;;;51.25;32.45;;;17.10;77.70;;;;;;1853221;77;21142;-68
2021/03/24 17:01:37;;;;;;;53.87;33.73;;;17.10;78.10;;;;;;1855996;77;21595;-68
2021/03/24 17:04:13;;;;;;;53.63;34.65;;;17.10;78.00;;;;;;1855564;76;21032;-68
2021/03/24 17:06:55;;;;;;;51.42;34.73;;;17.00;77.90;;;;;;1854909;76;21521;-68
2021/03/24 17:09:47;;;;;;;54.50;35.25;;;17.00;77.90;;;;;;1853427;77;21094;-68
2021/03/24 17:12:28;;;;;;;51.53;34.73;;;17.00;78.20;;;;;;1807067;77;21357;-69
2021/03/24 17:15:11;;;;;;;57.30;34.75;;;16.90;78.30;;;;;;1856252;77;21078;-68
2021/03/24 17:17:47;;;;;;;52.13;34.53;;;16.90;78.70;;;;;;1857291;76;21559;-68
2021/03/24 17:20:23;;;;;;;54.98;35.35;;;16.80;78.70;;;;;;1855844;77;21078;-68
2021/03/24 17:23:00;;;;;;;52.08;34.48;;;16.90;78.90;;;;;;1857598;76;21118;-68
2021/03/24 17:25:36;;;;;;;51.98;34.40;;;16.90;79.20;;;;;;1834624;77;21128;-68
2021/03/24 17:28:25;;;;;;;53.10;34.40;;;16.90;79.20;;;;;;1856378;77;21468;-68
2021/03/24 17:31:10;;;;;;;51.80;33.23;;;17.00;79.40;;;;;;1775528;79;21140;-71
2021/03/24 17:33:55;;;;;;;53.65;35.52;;;16.90;79.50;;;;;;1841238;77;21142;-69
2021/03/24 17:36:36;;;;;;;58.70;34.98;;;16.80;79.60;;;;;;1854199;77;21146;-70
2021/03/24 17:39:07;;;;;;;57.58;36.10;;;16.80;80.10;;;;;;1853718;76;21610;-70
2021/03/24 17:41:38;;;;;;;55.35;35.13;;;16.70;80.30;;;;;;1853391;75;21152;-69
2021/03/24 17:44:11;;;;;;;57.55;35.90;;;16.70;80.50;;;;;;1855220;76;21067;-69
2021/03/24 17:46:56;;;;;;;55.15;34.95;;;16.70;80.90;;;;;;1851265;75;21157;-70
2021/03/24 17:49:30;;;;;;;54.53;35.45;;;16.70;80.70;;;;;;1851584;76;21360;-70
2021/03/24 17:52:26;;;;;;;53.28;34.70;;;16.70;81.20;;;;;;1857157;76;21067;-70
2021/03/24 17:54:59;;;;;;;58.08;34.38;;;16.70;81.10;;;;;;1854929;77;22146;-70
2021/03/24 17:57:30;;;;;;;53.55;34.80;;;16.60;81.60;;;;;;1858183;76;21164;-69
2021/03/24 18:00:34;;;;;;;56.92;34.67;;;16.60;81.60;;;;;;1851296;76;21136;-70
2021/03/24 18:03:31;;;;;;;59.03;35.43;;;16.60;81.80;;;;;;1851126;77;21153;-69
2021/03/24 18:06:04;;;;;;;52.08;34.40;;;16.50;81.80;;;;;;1853111;77;21188;-69
2021/03/24 18:08:35;;;;;;;53.23;33.55;;;16.50;82.20;;;;;;1851539;77;21066;-70
2021/03/24 18:11:21;;;;;;;59.38;35.25;;;16.50;82.30;;;;;;1850710;77;21138;-69
2021/03/24 18:14:07;;;;;;;63.13;36.08;;;16.50;82.30;;;;;;1857698;76;21105;-70
2021/03/24 18:16:44;;;;;;;58.40;35.78;;;16.40;82.30;;;;;;1859774;77;21645;-70
2021/03/24 18:19:15;;;;;;;60.65;37.00;;;16.40;82.60;;;;;;1854429;77;21090;-69
2021/03/24 18:21:45;;;;;;;55.73;36.48;;;16.40;82.70;;;;;;1853995;76;21827;-69
2021/03/24 18:24:13;;;;;;;59.10;35.08;;;16.40;83.10;;;;;;1854736;76;21148;-68
2021/03/24 18:26:42;;;;;;;56.05;35.20;;;16.40;83.70;;;;;;1852115;77;21122;-69
2021/03/24 18:29:16;;;;;;;59.10;36.93;;;16.30;83.50;;;;;;1836346;78;21099;-69
2021/03/24 18:31:49;;;;;;;54.73;34.58;;;16.30;84.40;;;;;;1841968;77;21664;-69
2021/03/24 18:34:19;;;;;;;56.00;34.27;;;16.20;85.50;;;;;;1878723;76;22234;-68
2021/03/24 18:36:56;;;;;;;50.48;33.90;;;16.10;87.30;;;;;;1875291;76;21140;-69
2021/03/24 18:39:29;;;;;;;61.02;35.92;;;16.00;88.60;;;;;;1880833;76;21198;-69
2021/03/24 18:41:59;;;;;;;60.40;36.65;;;15.90;88.60;;;;;;1875442;76;21275;-68
2021/03/24 18:44:32;;;;;;;56.70;35.20;;;15.80;88.40;;;;;;1883945;76;21210;-68
2021/03/24 18:47:00;;;;;;;52.33;34.78;;;15.70;88.40;;;;;;1878454;75;21313;-69
2021/03/24 18:49:31;;;;;;;61.65;36.63;;;15.60;88.40;;;;;;1880112;76;21097;-68
2021/03/24 18:52:04;;;;;;;58.30;35.85;;;15.60;87.80;;;;;;1881053;76;21369;-68
2021/03/24 18:54:35;;;;;;;54.75;36.03;;;15.60;89.00;;;;;;1881802;76;21094;-67
2021/03/24 18:57:05;;;;;;;61.42;37.17;;;15.50;90.50;;;;;;1876834;75;21530;-67
2021/03/24 18:59:36;;;;;;;55.60;36.88;;;15.50;89.60;;;;;;1875824;74;21562;-67
2021/03/24 19:02:21;;;;;;;56.48;35.50;;;15.40;89.50;;;;;;1874510;76;21182;-68
2021/03/24 19:04:49;;;;;;;57.00;36.88;;;15.50;89.80;;;;;;1878205;75;21276;-68
2021/03/24 19:07:19;;;;;;;55.92;34.83;;;15.40;90.20;;;;;;1879542;76;21636;-67
2021/03/24 19:09:50;;;;;;;57.43;37.00;;;15.40;90.60;;;;;;1877458;76;21183;-67
2021/03/24 19:12:24;;;;;;;59.75;37.08;;;15.30;90.40;;;;;;1878046;76;21326;-68
2021/03/24 19:14:53;;;;;;;60.12;37.40;;;15.30;90.40;;;;;;1878027;76;21081;-68
2021/03/24 19:17:28;;;;;;;59.05;36.75;;;15.30;90.60;;;;;;1878845;74;21176;-68
2021/03/24 19:19:58;;;;;;;56.80;38.17;;;15.30;90.60;;;;;;1882462;76;21167;-68
2021/03/24 19:22:34;;;;;;;59.20;38.15;;;15.30;90.70;;;;;;1881238;76;21234;-68
2021/03/24 19:25:23;;;;;;;59.95;36.85;;;15.30;90.70;;;;;;1875887;76;21190;-69
2021/03/24 19:28:02;;;;;;;63.28;37.58;;;15.20;90.50;;;;;;1876327;76;21144;-69
2021/03/24 19:30:39;;;;;;;64.50;37.53;;;15.20;90.70;;;;;;1880467;74;21105;-69
2021/03/24 19:33:21;;;;;;;61.42;38.28;;;15.20;90.80;;;;;;1874713;75;21174;-69
2021/03/24 19:35:51;;;;;;;59.95;38.67;;;15.20;91.10;;;;;;1881702;76;21140;-68
2021/03/24 19:38:30;;;;;;;63.92;37.60;;;15.20;91.20;;;;;;1880305;74;21074;-68
2021/03/24 19:41:12;;;;;;;64.27;40.15;;;15.30;91.20;;;;;;1883503;75;21167;-68
2021/03/24 19:43:46;;;;;;;64.45;38.23;;;15.30;90.70;;;;;;1884399;76;22074;-67
2021/03/24 19:46:34;;;;;;;62.38;37.25;;;15.30;91.30;;;;;;1879069;75;21168;-70
2021/03/24 19:49:07;;;;;;;69.03;38.13;;;15.30;91.60;;;;;;1876494;76;22416;-68
2021/03/24 19:51:36;;;;;;;62.23;38.02;;;15.30;91.10;;;;;;1879705;76;21097;-67
2021/03/24 19:54:05;;;;;;;61.23;38.17;;;15.30;91.00;;;;;;1883119;74;21096;-69
2021/03/24 19:56:58;;;;;;;56.80;35.58;;;15.30;91.10;;;;;;1880945;74;21796;-69
2021/03/24 19:59:41;;;;;;;58.90;37.90;;;15.30;91.20;;;;;;1878031;76;21197;-69
2021/03/24 20:02:17;;;;;;;60.58;37.15;;;15.20;91.30;;;;;;1880729;76;21245;-68
2021/03/24 20:04:48;;;;;;;53.20;35.03;;;15.20;91.50;;;;;;1880975;76;21229;-68
2021/03/24 20:07:26;;;;;;;56.35;36.75;;;15.20;91.60;;;;;;1878512;75;21572;-69
2021/03/24 20:09:50;;;;;;;57.00;36.55;;;15.10;91.80;;;;;;1880811;75;21508;-66
2021/03/24 20:12:37;;;;;;;51.55;35.55;;;15.10;92.00;;;;;;1881790;76;21111;-70
2021/03/24 20:15:08;;;;;;;55.63;35.90;;;15.10;92.30;;;;;;1882383;76;21260;-69
2021/03/24 20:17:41;;;;;;;54.03;35.33;;;15.00;92.30;;;;;;1878941;76;21097;-69
2021/03/24 20:20:24;;;;;;;56.60;36.48;;;15.00;92.60;;;;;;1878868;76;21096;-67
2021/03/24 20:22:52;;;;;;;56.80;35.40;;;14.90;92.80;;;;;;1879099;76;21554;-69
2021/03/24 20:25:23;;;;;;;58.87;36.90;;;14.80;93.00;;;;;;1882393;76;21168;-69
2021/03/24 20:27:51;;;;;;;54.25;37.00;;;14.80;93.20;;;;;;1877599;76;21097;-70
2021/03/24 20:30:25;;;;;;;55.55;36.80;;;14.70;93.30;;;;;;1879388;75;21124;-69
2021/03/24 20:32:58;;;;;;;53.85;36.10;;;14.70;93.20;;;;;;1875798;75;21171;-69
2021/03/24 20:35:49;;;;;;;63.35;36.65;;;14.60;93.50;;;;;;1882654;75;21136;-68
2021/03/24 20:38:23;;;;;;;58.40;36.23;;;14.60;93.50;;;;;;1882488;76;21442;-68
2021/03/24 20:40:53;;;;;;;53.70;34.90;;;14.50;93.60;;;;;;1878714;76;21129;-69
2021/03/24 20:43:40;;;;;;;56.33;35.83;;;14.40;93.90;;;;;;1878920;74;21083;-69
2021/03/24 20:46:10;;;;;;;56.98;36.10;;;14.40;93.90;;;;;;1880852;76;21575;-67
2021/03/24 20:48:38;;;;;;;50.52;33.75;;;14.30;94.10;;;;;;1879483;75;21252;-66
2021/03/24 20:51:07;;;;;;;61.25;37.10;;;14.30;94.10;;;;;;1879321;76;21058;-66
2021/03/24 20:53:37;;;;;;;50.50;34.35;;;14.30;94.30;;;;;;1881298;76;21544;-66
2021/03/24 20:56:06;;;;;;;51.48;34.63;;;14.30;94.60;;;;;;1882964;76;21054;-68
2021/03/24 20:58:36;;;;;;;54.20;35.73;;;14.30;94.40;;;;;;1879442;76;21551;-68
2021/03/24 21:01:06;;;;;;;51.02;34.83;;;14.20;94.70;;;;;;1880600;76;21634;-67
2021/03/24 21:03:36;;;;;;;53.83;35.70;;;14.20;94.70;;;;;;1879778;74;21081;-65
2021/03/24 21:06:06;;;;;;;49.40;35.10;;;14.10;94.90;;;;;;1876450;76;21125;-67
2021/03/24 21:08:36;;;;;;;54.38;36.03;;;14.10;95.00;;;;;;1881407;76;21546;-67
2021/03/24 21:11:07;;;;;;;53.80;36.50;;;14.00;94.80;;;;;;1882258;76;21116;-66
2021/03/24 21:13:35;;;;;;;52.93;35.78;;;14.00;94.90;;;;;;1880210;76;21152;-65
2021/03/24 21:16:05;;;;;;;56.55;37.50;;;13.90;95.10;;;;;;1879922;76;21058;-64
2021/03/24 21:18:36;;;;;;;53.87;36.33;;;13.90;95.30;;;;;;1884466;76;21184;-65
2021/03/24 21:21:16;;;;;;;54.00;36.93;;;13.90;95.20;;;;;;1879678;76;21155;-77
2021/03/24 21:23:44;;;;;;;55.20;35.50;;;13.90;95.50;;;;;;1876519;76;22183;-68
2021/03/24 21:26:17;;;;;;;56.13;36.17;;;13.80;95.50;;;;;;1884731;76;21098;-68
2021/03/24 21:28:45;;;;;;;49.45;35.80;;;13.80;95.60;;;;;;1878519;76;21159;-68
2021/03/24 21:31:14;;;;;;;53.70;36.35;;;13.80;95.70;;;;;;1874780;76;21226;-66
2021/03/24 21:33:42;;;;;;;60.78;37.28;;;13.70;95.70;;;;;;1880131;76;21199;-68
2021/03/24 21:36:10;;;;;;;56.50;38.00;;;13.70;95.90;;;;;;1876327;76;21398;-67
2021/03/24 21:38:41;;;;;;;55.83;36.58;;;13.70;96.00;;;;;;1881502;76;21097;-67
2021/03/24 21:41:16;;;;;;;55.30;37.15;;;13.60;96.10;;;;;;1877053;75;21154;-67
2021/03/24 21:43:40;;;;;;;;;;;13.60;96.60;;;;;;1881470;76;21520;-66
2021/03/24 21:46:07;;;;;;;58.90;37.83;;;13.60;96.50;;;;;;1879997;76;20238;-67
2021/03/24 21:48:38;;;;;;;59.20;37.78;;;13.60;96.60;;;;;;1883185;76;21034;-67
2021/03/24 21:51:08;;;;;;;55.38;37.88;;;13.60;96.50;;;;;;1876805;76;21189;-68
2021/03/24 21:53:36;;;;;;;58.70;39.10;;;13.60;96.60;;;;;;1880850;76;21469;-68
2021/03/24 21:56:05;;;;;;;57.33;37.73;;;13.50;96.60;;;;;;1876622;76;21567;-66
2021/03/24 21:58:41;;;;;;;60.92;39.00;;;13.60;96.70;;;;;;1880727;76;21184;-68
2021/03/24 22:01:11;;;;;;;62.60;39.70;;;13.50;96.80;;;;;;1881125;76;21089;-68
2021/03/24 22:03:48;;;;;;;62.25;39.67;;;13.60;96.90;;;;;;1877464;74;21077;-68
2021/03/24 22:06:16;;;;;;;60.92;38.48;;;13.50;96.80;;;;;;1874647;74;21214;-68
2021/03/24 22:08:44;;;;;;;58.95;38.50;;;13.60;96.90;;;;;;1883606;76;21084;-68
2021/03/24 22:11:12;;;;;;;58.40;37.70;;;13.60;97.40;;;;;;1881797;75;21139;-70
2021/03/24 22:13:59;;;;;;;58.13;38.70;;;13.50;97.10;;;;;;1885526;74;21170;-70
2021/03/24 22:16:39;;;;;;;59.58;39.98;;;13.50;97.30;;;;;;1883321;74;21716;-70
2021/03/24 22:19:06;;;;;;;61.83;39.70;;;13.40;97.20;;;;;;1882585;76;21054;-69
2021/03/24 22:21:35;;;;;;;64.97;39.85;;;13.50;97.10;;;;;;1880517;75;21500;-69
2021/03/24 22:24:02;;;;;;;58.00;38.92;;;13.50;97.20;;;;;;1882262;76;21050;-69
2021/03/24 22:26:58;;;;;;;59.05;38.67;;;13.40;97.10;;;;;;1881793;74;21525;-69
2021/03/24 22:29:35;;;;;;;61.05;38.85;;;13.40;97.20;;;;;;1876453;76;21155;-68
2021/03/24 22:32:17;;;;;;;60.15;39.10;;;13.30;97.30;;;;;;1882833;76;21528;-70
2021/03/24 22:34:46;;;;;;;;;;;13.20;97.60;;;;;;1883877;75;21214;-70
2021/03/24 22:37:16;;;;;;;61.83;37.53;;;13.10;98.00;;;;;;1883015;76;20268;-70
2021/03/24 22:39:50;;;;;;;67.00;38.58;;;13.00;98.10;;;;;;1883375;75;21163;-69
2021/03/24 22:42:30;;;;;;;60.10;38.50;;;13.00;98.20;;;;;;1880428;76;21195;-69
2021/03/24 22:44:59;;;;;;;59.30;39.98;;;13.00;98.10;;;;;;1880661;75;21102;-70
2021/03/24 22:47:41;;;;;;;60.03;39.63;;;12.90;97.90;;;;;;1852455;76;21163;-70
2021/03/24 22:50:21;;;;;;;61.18;39.05;;;12.90;98.20;;;;;;1843454;76;21155;-69
2021/03/24 22:53:00;;;;;;;63.52;39.98;;;12.80;98.30;;;;;;1885669;74;21077;-69
2021/03/24 22:55:43;;;;;;;66.80;40.15;;;12.70;98.40;;;;;;1882109;75;22172;-70
2021/03/24 22:58:22;;;;;;;58.78;40.03;;;12.70;98.50;;;;;;1885400;76;21629;-70
2021/03/24 23:00:53;;;;;;;66.60;40.43;;;12.60;98.60;;;;;;1879277;76;21097;-70
2021/03/24 23:03:41;;;;;;;60.52;40.25;;;12.60;98.90;;;;;;1881732;76;21139;-70
2021/03/24 23:06:11;;;;;;;57.35;38.78;;;12.50;99.10;;;;;;1884147;75;21120;-70
2021/03/24 23:08:43;;;;;;;62.08;39.03;;;12.50;99.10;;;;;;1884601;76;21102;-69
2021/03/24 23:11:13;;;;;;;59.25;39.53;;;12.40;99.10;;;;;;1882413;76;21215;-69
2021/03/24 23:13:46;;;;;;;58.70;38.85;;;12.30;99.30;;;;;;1887050;76;21107;-69
2021/03/24 23:16:20;;;;;;;59.58;38.70;;;12.20;99.50;;;;;;1873673;76;21199;-69
2021/03/24 23:19:08;;;;;;;56.30;38.45;;;12.20;99.70;;;;;;1877945;76;21147;-69
2021/03/24 23:21:36;;;;;;;61.77;38.75;;;12.10;99.70;;;;;;1879365;76;21168;-70
2021/03/24 23:24:10;;;;;;;61.08;38.65;;;12.10;99.80;;;;;;1882908;76;21062;-69
2021/03/24 23:26:40;;;;;;;61.15;38.67;;;12.00;99.90;;;;;;1878826;75;21233;-69
2021/03/24 23:29:10;;;;;;;63.58;39.45;;;12.00;99.90;;;;;;1874139;76;21113;-69
2021/03/24 23:31:40;;;;;;;66.50;40.25;;;12.00;99.90;;;;;;1881939;76;21199;-70
2021/03/24 23:34:09;;;;;;;64.00;39.25;;;12.00;99.90;;;;;;1877418;76;21136;-70
2021/03/24 23:36:37;;;;;;;60.90;38.75;;;11.90;99.90;;;;;;1876486;76;21677;-69
2021/03/24 23:39:05;;;;;;;59.15;38.73;;;11.90;99.90;;;;;;1882598;76;21105;-70
2021/03/24 23:41:33;;;;;;;58.42;39.40;;;11.90;99.90;;;;;;1883374;76;21045;-70
2021/03/24 23:44:02;;;;;;;63.78;38.63;;;11.90;99.90;;;;;;1882868;76;21230;-71
2021/03/24 23:46:29;;;;;;;56.25;38.83;;;11.80;99.90;;;;;;1880887;76;21136;-70
2021/03/24 23:48:57;;;;;;;57.85;38.48;;;11.90;99.90;;;;;;1883629;76;21100;-70
2021/03/24 23:51:24;;;;;;;61.28;39.45;;;11.80;99.90;;;;;;1877527;76;21178;-70
2021/03/24 23:53:53;;;;;;;61.83;38.98;;;11.80;99.90;;;;;;1880099;76;21311;-70
2021/03/24 23:56:30;;;;;;;64.22;39.33;;;11.70;99.90;;;;;;1878524;76;21194;-70
2021/03/24 23:58:53;;;;;;;62.88;39.50;;;11.70;99.90;;;;;;1881861;76;21160;-70
